sensor_id;sensor_type;location;lat;lon;timestamp;pressure;altitude;pressure_sealevel;temperature;humidity
59493;BME280;45497;43.996;22.876;2022-09-12T00:01:24;100841.84;;;20.52;45.49
59493;BME280;45497;43.996;22.876;2022-09-12T00:03:51;100840.78;;;20.53;45.55
59493;BME280;45497;43.996;22.876;2022-09-12T00:08:56;100836.44;;;20.52;45.57
59493;BME280;45497;43.996;22.876;2022-09-12T00:11:22;100827.56;;;20.52;45.68
59493;BME280;45497;43.996;22.876;2022-09-12T00:13:48;100832.72;;;20.53;45.67
59493;BME280;45497;43.996;22.876;2022-09-12T00:16:19;100835.06;;;20.50;45.78
59493;BME280;45497;43.996;22.876;2022-09-12T00:18:46;100832.59;;;20.48;45.91
59493;BME280;45497;43.996;22.876;2022-09-12T00:21:12;100831.19;;;20.46;45.92
59493;BME280;45497;43.996;22.876;2022-09-12T00:24:50;100835.97;;;20.43;45.89
59493;BME280;45497;43.996;22.876;2022-09-12T00:27:16;100836.09;;;20.37;46.09
59493;BME280;45497;43.996;22.876;2022-09-12T00:29:41;100833.41;;;20.37;46.17
59493;BME280;45497;43.996;22.876;2022-09-12T00:32:07;100831.28;;;20.39;46.19
59493;BME280;45497;43.996;22.876;2022-09-12T00:34:32;100834.00;;;20.39;46.25
59493;BME280;45497;43.996;22.876;2022-09-12T00:38:27;100831.03;;;20.29;46.50
59493;BME280;45497;43.996;22.876;2022-09-12T00:40:53;100832.09;;;20.28;46.58
59493;BME280;45497;43.996;22.876;2022-09-12T00:43:38;100832.34;;;20.26;46.71
59493;BME280;45497;43.996;22.876;2022-09-12T00:49:18;100833.28;;;20.32;46.71
59493;BME280;45497;43.996;22.876;2022-09-12T00:51:48;100827.31;;;20.30;46.89
59493;BME280;45497;43.996;22.876;2022-09-12T00:54:19;100842.63;;;20.29;46.82
59493;BME280;45497;43.996;22.876;2022-09-12T00:58:11;100835.47;;;20.23;47.04
59493;BME280;45497;43.996;22.876;2022-09-12T01:00:39;100847.19;;;20.29;47.12
59493;BME280;45497;43.996;22.876;2022-09-12T01:03:08;100843.91;;;20.27;47.03
59493;BME280;45497;43.996;22.876;2022-09-12T01:05:40;100843.91;;;20.27;47.15
59493;BME280;45497;43.996;22.876;2022-09-12T01:08:09;100850.94;;;20.28;47.12
59493;BME280;45497;43.996;22.876;2022-09-12T01:10:36;100850.25;;;20.32;46.95
59493;BME280;45497;43.996;22.876;2022-09-12T01:13:04;100844.84;;;20.32;47.06
59493;BME280;45497;43.996;22.876;2022-09-12T01:15:30;100846.50;;;20.33;47.03
59493;BME280;45497;43.996;22.876;2022-09-12T01:21:01;100840.19;;;20.28;47.12
59493;BME280;45497;43.996;22.876;2022-09-12T01:38:41;100827.53;;;20.40;47.04
59493;BME280;45497;43.996;22.876;2022-09-12T01:43:08;100827.53;;;20.40;47.29
59493;BME280;45497;43.996;22.876;2022-09-12T01:47:20;100822.75;;;20.42;47.26
59493;BME280;45497;43.996;22.876;2022-09-12T01:52:03;100814.56;;;20.37;47.39
59493;BME280;45497;43.996;22.876;2022-09-12T01:55:00;100819.09;;;20.36;47.36
59493;BME280;45497;43.996;22.876;2022-09-12T01:57:53;100822.16;;;20.40;47.42
59493;BME280;45497;43.996;22.876;2022-09-12T02:00:20;100824.38;;;20.43;47.40
59493;BME280;45497;43.996;22.876;2022-09-12T02:04:16;100823.00;;;20.40;47.38
59493;BME280;45497;43.996;22.876;2022-09-12T02:06:48;100812.56;;;20.44;47.40
59493;BME280;45497;43.996;22.876;2022-09-12T02:10:23;100830.03;;;20.53;47.20
59493;BME280;45497;43.996;22.876;2022-09-12T02:13:00;100828.38;;;20.52;47.14
59493;BME280;45497;43.996;22.876;2022-09-12T02:19:19;100818.78;;;20.44;47.51
59493;BME280;45497;43.996;22.876;2022-09-12T02:22:35;100824.16;;;20.44;47.47
59493;BME280;45497;43.996;22.876;2022-09-12T02:25:03;100828.16;;;20.42;47.68
59493;BME280;45497;43.996;22.876;2022-09-12T02:27:39;100823.00;;;20.40;47.69
59493;BME280;45497;43.996;22.876;2022-09-12T02:30:08;100819.72;;;20.38;47.80
59493;BME280;45497;43.996;22.876;2022-09-12T02:35:04;100813.00;;;20.29;47.97
59493;BME280;45497;43.996;22.876;2022-09-12T02:40:20;100828.44;;;20.22;48.30
59493;BME280;45497;43.996;22.876;2022-09-12T02:42:47;100824.34;;;20.19;48.49
59493;BME280;45497;43.996;22.876;2022-09-12T02:45:13;100824.56;;;20.18;48.62
59493;BME280;45497;43.996;22.876;2022-09-12T02:49:57;100827.28;;;20.18;48.85
59493;BME280;45497;43.996;22.876;2022-09-12T02:52:23;100826.47;;;20.17;48.59
59493;BME280;45497;43.996;22.876;2022-09-12T02:54:50;100829.97;;;20.18;48.81
59493;BME280;45497;43.996;22.876;2022-09-12T02:57:19;100822.81;;;20.12;49.01
59493;BME280;45497;43.996;22.876;2022-09-12T02:59:45;100820.38;;;20.10;48.91
59493;BME280;45497;43.996;22.876;2022-09-12T03:05:33;100822.34;;;20.03;49.19
59493;BME280;45497;43.996;22.876;2022-09-12T03:13:39;100821.59;;;19.96;49.53
59493;BME280;45497;43.996;22.876;2022-09-12T03:23:53;100816.44;;;19.94;49.57
59493;BME280;45497;43.996;22.876;2022-09-12T03:26:29;100819.94;;;19.95;49.67
59493;BME280;45497;43.996;22.876;2022-09-12T03:28:57;100819.16;;;19.94;49.79
59493;BME280;45497;43.996;22.876;2022-09-12T03:31:24;100821.59;;;19.96;49.85
59493;BME280;45497;43.996;22.876;2022-09-12T03:34:18;100823.00;;;19.98;49.82
59493;BME280;45497;43.996;22.876;2022-09-12T03:36:43;100814.34;;;19.96;49.69
59493;BME280;45497;43.996;22.876;2022-09-12T03:40:16;100815.78;;;19.99;49.71
59493;BME280;45497;43.996;22.876;2022-09-12T03:42:42;100817.63;;;19.98;49.76
59493;BME280;45497;43.996;22.876;2022-09-12T03:45:08;100814.34;;;19.96;49.79
59493;BME280;45497;43.996;22.876;2022-09-12T03:47:34;100813.53;;;19.96;49.65
59493;BME280;45497;43.996;22.876;2022-09-12T03:50:00;100809.69;;;19.92;49.78
59493;BME280;45497;43.996;22.876;2022-09-12T03:52:26;100819.38;;;19.93;49.74
59493;BME280;45497;43.996;22.876;2022-09-12T03:54:51;100817.97;;;19.90;49.76
59493;BME280;45497;43.996;22.876;2022-09-12T03:57:17;100824.53;;;19.94;49.96
59493;BME280;45497;43.996;22.876;2022-09-12T03:59:43;100818.06;;;19.83;49.76
59493;BME280;45497;43.996;22.876;2022-09-12T04:02:08;100824.16;;;19.91;49.65
59493;BME280;45497;43.996;22.876;2022-09-12T04:04:37;100829.31;;;19.92;49.77
59493;BME280;45497;43.996;22.876;2022-09-12T04:07:02;100833.41;;;19.95;49.74
59493;BME280;45497;43.996;22.876;2022-09-12T04:09:28;100828.25;;;19.93;49.90
59493;BME280;45497;43.996;22.876;2022-09-12T04:11:53;100824.06;;;19.97;49.73
59493;BME280;45497;43.996;22.876;2022-09-12T04:14:19;100837.31;;;20.11;49.59
59493;BME280;45497;43.996;22.876;2022-09-12T04:16:44;100836.00;;;20.01;49.65
59493;BME280;45497;43.996;22.876;2022-09-12T04:21:31;100845.97;;;20.13;49.57
59493;BME280;45497;43.996;22.876;2022-09-12T04:23:56;100841.53;;;20.18;49.52
59493;BME280;45497;43.996;22.876;2022-09-12T04:26:22;100836.78;;;20.32;49.44
59493;BME280;45497;43.996;22.876;2022-09-12T04:28:52;100840.69;;;20.60;48.79
59493;BME280;45497;43.996;22.876;2022-09-12T04:31:19;100840.91;;;20.94;48.04
59493;BME280;45497;43.996;22.876;2022-09-12T04:33:53;100835.59;;;21.23;47.22
59493;BME280;45497;43.996;22.876;2022-09-12T04:36:19;100846.56;;;21.56;46.48
59493;BME280;45497;43.996;22.876;2022-09-12T04:40:52;100838.00;;;21.88;45.54
59493;BME280;45497;43.996;22.876;2022-09-12T04:43:17;100846.44;;;22.09;45.27
59493;BME280;45497;43.996;22.876;2022-09-12T04:45:42;100848.16;;;22.44;44.50
59493;BME280;45497;43.996;22.876;2022-09-12T04:48:08;100851.00;;;22.71;43.90
59493;BME280;45497;43.996;22.876;2022-09-12T04:50:33;100848.91;;;22.95;43.15
59493;BME280;45497;43.996;22.876;2022-09-12T04:52:59;100855.13;;;23.13;42.64
59493;BME280;45497;43.996;22.876;2022-09-12T04:55:24;100855.63;;;23.32;42.39
59493;BME280;45497;43.996;22.876;2022-09-12T04:57:50;100852.38;;;23.52;41.88
59493;BME280;45497;43.996;22.876;2022-09-12T05:00:16;100849.31;;;23.70;41.35
59493;BME280;45497;43.996;22.876;2022-09-12T05:02:42;100856.00;;;23.84;40.77
59493;BME280;45497;43.996;22.876;2022-09-12T05:05:08;100862.09;;;24.02;40.89
59493;BME280;45497;43.996;22.876;2022-09-12T05:07:34;100875.59;;;24.24;40.38
59493;BME280;45497;43.996;22.876;2022-09-12T05:09:59;100867.59;;;24.39;39.82
59493;BME280;45497;43.996;22.876;2022-09-12T05:12:26;100867.59;;;24.72;39.40
59493;BME280;45497;43.996;22.876;2022-09-12T05:14:51;100863.44;;;25.02;38.73
59493;BME280;45497;43.996;22.876;2022-09-12T05:17:17;100869.03;;;25.27;38.22
59493;BME280;45497;43.996;22.876;2022-09-12T05:19:43;100863.09;;;25.35;38.19
59493;BME280;45497;43.996;22.876;2022-09-12T05:22:08;100865.31;;;25.49;37.78
59493;BME280;45497;43.996;22.876;2022-09-12T05:24:34;100861.28;;;25.62;37.74
59493;BME280;45497;43.996;22.876;2022-09-12T05:27:00;100870.03;;;25.84;37.27
59493;BME280;45497;43.996;22.876;2022-09-12T05:29:27;100865.19;;;26.12;36.62
59493;BME280;45497;43.996;22.876;2022-09-12T05:31:53;100868.47;;;26.35;36.13
59493;BME280;45497;43.996;22.876;2022-09-12T05:34:19;100869.00;;;26.78;35.75
59493;BME280;45497;43.996;22.876;2022-09-12T05:36:44;100867.28;;;27.13;35.03
59493;BME280;45497;43.996;22.876;2022-09-12T05:39:10;100861.16;;;27.52;34.63
59493;BME280;45497;43.996;22.876;2022-09-12T05:41:35;100859.28;;;27.97;33.49
59493;BME280;45497;43.996;22.876;2022-09-12T05:44:05;100858.16;;;28.32;33.18
59493;BME280;45497;43.996;22.876;2022-09-12T05:46:38;100857.19;;;28.82;32.29
59493;BME280;45497;43.996;22.876;2022-09-12T05:49:06;100854.03;;;29.23;31.82
59493;BME280;45497;43.996;22.876;2022-09-12T05:51:35;100849.72;;;29.60;31.02
59493;BME280;45497;43.996;22.876;2022-09-12T05:54:04;100842.16;;;30.08;30.21
59493;BME280;45497;43.996;22.876;2022-09-12T05:56:32;100839.97;;;30.43;30.01
59493;BME280;45497;43.996;22.876;2022-09-12T05:59:03;100847.94;;;30.86;29.34
59493;BME280;45497;43.996;22.876;2022-09-12T06:01:30;100836.75;;;31.38;28.43
59493;BME280;45497;43.996;22.876;2022-09-12T06:03:58;100832.50;;;31.82;27.75
59493;BME280;45497;43.996;22.876;2022-09-12T06:06:26;100840.53;;;32.24;27.34
59493;BME280;45497;43.996;22.876;2022-09-12T06:08:54;100832.88;;;32.66;26.77
59493;BME280;45497;43.996;22.876;2022-09-12T06:11:23;100850.47;;;33.05;26.16
59493;BME280;45497;43.996;22.876;2022-09-12T06:13:50;100844.72;;;33.24;25.78
59493;BME280;45497;43.996;22.876;2022-09-12T06:16:20;100845.72;;;33.55;25.25
59493;BME280;45497;43.996;22.876;2022-09-12T06:19:51;100836.97;;;34.22;24.40
59493;BME280;45497;43.996;22.876;2022-09-12T06:22:17;100846.59;;;34.93;23.47
59493;BME280;45497;43.996;22.876;2022-09-12T06:24:43;100835.22;;;35.54;22.63
59493;BME280;45497;43.996;22.876;2022-09-12T06:27:09;100843.75;;;36.49;21.64
59493;BME280;45497;43.996;22.876;2022-09-12T06:29:34;100838.84;;;37.57;20.10
59493;BME280;45497;43.996;22.876;2022-09-12T06:31:59;100843.19;;;38.43;19.30
59493;BME280;45497;43.996;22.876;2022-09-12T06:34:25;100845.25;;;39.29;18.52
59493;BME280;45497;43.996;22.876;2022-09-12T06:36:51;100833.00;;;39.89;17.73
59493;BME280;45497;43.996;22.876;2022-09-12T06:39:19;100842.41;;;40.96;16.69
59493;BME280;45497;43.996;22.876;2022-09-12T06:41:45;100835.34;;;41.63;16.08
59493;BME280;45497;43.996;22.876;2022-09-12T06:44:21;100839.94;;;41.48;15.92
59493;BME280;45497;43.996;22.876;2022-09-12T06:46:47;100841.22;;;42.29;15.18
59493;BME280;45497;43.996;22.876;2022-09-12T06:49:13;100842.63;;;43.09;14.63
59493;BME280;45497;43.996;22.876;2022-09-12T06:51:38;100823.03;;;43.89;13.79
59493;BME280;45497;43.996;22.876;2022-09-12T06:54:06;100824.22;;;43.99;13.85
59493;BME280;45497;43.996;22.876;2022-09-12T06:56:31;100824.69;;;44.66;12.93
59493;BME280;45497;43.996;22.876;2022-09-12T06:58:57;100824.56;;;45.09;12.80
59493;BME280;45497;43.996;22.876;2022-09-12T07:01:28;100820.09;;;45.40;12.51
59493;BME280;45497;43.996;22.876;2022-09-12T07:03:57;100819.63;;;45.53;12.49
59493;BME280;45497;43.996;22.876;2022-09-12T07:06:27;100813.03;;;44.82;13.24
59493;BME280;45497;43.996;22.876;2022-09-12T07:09:00;100813.47;;;43.83;14.00
59493;BME280;45497;43.996;22.876;2022-09-12T07:11:32;100824.97;;;42.35;14.79
59493;BME280;45497;43.996;22.876;2022-09-12T07:13:59;100822.25;;;40.53;16.18
59493;BME280;45497;43.996;22.876;2022-09-12T07:16:25;100824.44;;;39.19;17.12
59493;BME280;45497;43.996;22.876;2022-09-12T07:18:52;100835.94;;;38.38;17.79
59493;BME280;45497;43.996;22.876;2022-09-12T07:21:18;100839.97;;;37.68;18.26
59493;BME280;45497;43.996;22.876;2022-09-12T07:23:44;100823.06;;;37.05;18.87
59493;BME280;45497;43.996;22.876;2022-09-12T07:26:11;100832.59;;;36.58;19.45
59493;BME280;45497;43.996;22.876;2022-09-12T07:28:38;100839.22;;;35.99;20.07
59493;BME280;45497;43.996;22.876;2022-09-12T07:31:11;100837.03;;;35.50;20.58
59493;BME280;45497;43.996;22.876;2022-09-12T07:33:38;100837.41;;;35.19;20.94
59493;BME280;45497;43.996;22.876;2022-09-12T07:36:10;100837.16;;;34.73;21.15
59493;BME280;45497;43.996;22.876;2022-09-12T07:38:37;100829.19;;;34.33;21.61
59493;BME280;45497;43.996;22.876;2022-09-12T07:41:20;100831.53;;;33.70;22.31
59493;BME280;45497;43.996;22.876;2022-09-12T07:43:46;100834.28;;;33.04;23.30
59493;BME280;45497;43.996;22.876;2022-09-12T07:46:12;100833.13;;;32.87;23.91
59493;BME280;45497;43.996;22.876;2022-09-12T07:48:38;100823.59;;;32.53;24.08
59493;BME280;45497;43.996;22.876;2022-09-12T07:51:06;100835.78;;;32.61;24.10
59493;BME280;45497;43.996;22.876;2022-09-12T07:53:35;100826.09;;;32.41;24.70
59493;BME280;45497;43.996;22.876;2022-09-12T07:56:01;100821.72;;;32.09;24.72
59493;BME280;45497;43.996;22.876;2022-09-12T07:58:28;100831.72;;;31.68;24.79
59493;BME280;45497;43.996;22.876;2022-09-12T08:01:10;100826.13;;;31.37;25.47
59493;BME280;45497;43.996;22.876;2022-09-12T08:03:38;100836.53;;;31.35;25.51
59493;BME280;45497;43.996;22.876;2022-09-12T08:06:10;100826.44;;;31.08;25.42
59493;BME280;45497;43.996;22.876;2022-09-12T08:08:50;100825.72;;;30.60;25.82
59493;BME280;45497;43.996;22.876;2022-09-12T08:11:18;100825.22;;;30.58;25.92
59493;BME280;45497;43.996;22.876;2022-09-12T08:13:45;100825.28;;;30.53;25.92
59493;BME280;45497;43.996;22.876;2022-09-12T08:16:13;100836.47;;;30.71;25.77
59493;BME280;45497;43.996;22.876;2022-09-12T08:18:39;100830.19;;;30.56;25.86
59493;BME280;45497;43.996;22.876;2022-09-12T08:23:59;100831.38;;;30.17;26.19
59493;BME280;45497;43.996;22.876;2022-09-12T08:26:26;100830.22;;;30.04;26.47
59493;BME280;45497;43.996;22.876;2022-09-12T08:28:51;100826.81;;;30.13;26.39
59493;BME280;45497;43.996;22.876;2022-09-12T08:31:19;100824.88;;;30.13;26.25
59493;BME280;45497;43.996;22.876;2022-09-12T08:33:45;100823.94;;;30.04;26.44
59493;BME280;45497;43.996;22.876;2022-09-12T08:38:41;100838.19;;;29.63;26.80
59493;BME280;45497;43.996;22.876;2022-09-12T08:41:28;100826.38;;;29.67;26.85
59493;BME280;45497;43.996;22.876;2022-09-12T08:44:18;100821.28;;;29.61;27.04
59493;BME280;45497;43.996;22.876;2022-09-12T08:52:49;100804.25;;;29.50;27.65
59493;BME280;45497;43.996;22.876;2022-09-12T08:55:29;100809.56;;;29.41;27.87
59493;BME280;45497;43.996;22.876;2022-09-12T08:57:56;100808.75;;;29.41;27.77
59493;BME280;45497;43.996;22.876;2022-09-12T09:00:47;100805.03;;;29.31;27.76
59493;BME280;45497;43.996;22.876;2022-09-12T09:03:24;100807.44;;;29.14;28.06
59493;BME280;45497;43.996;22.876;2022-09-12T09:06:02;100805.41;;;29.01;28.48
59493;BME280;45497;43.996;22.876;2022-09-12T09:17:41;100810.06;;;28.76;28.26
59493;BME280;45497;43.996;22.876;2022-09-12T09:24:07;100810.47;;;28.64;28.36
59493;BME280;45497;43.996;22.876;2022-09-12T09:29:48;100815.16;;;28.29;28.89
59493;BME280;45497;43.996;22.876;2022-09-12T09:32:27;100810.03;;;28.22;28.95
59493;BME280;45497;43.996;22.876;2022-09-12T09:35:46;100816.22;;;28.28;28.92
59493;BME280;45497;43.996;22.876;2022-09-12T09:38:23;100812.06;;;28.36;28.96
59493;BME280;45497;43.996;22.876;2022-09-12T09:45:16;100796.94;;;28.19;29.17
59493;BME280;45497;43.996;22.876;2022-09-12T09:47:45;100804.88;;;28.16;29.46
59493;BME280;45497;43.996;22.876;2022-09-12T09:50:15;100803.00;;;28.16;29.37
59493;BME280;45497;43.996;22.876;2022-09-12T09:52:41;100813.41;;;28.09;29.72
59493;BME280;45497;43.996;22.876;2022-09-12T09:56:35;100801.03;;;27.88;29.72
59493;BME280;45497;43.996;22.876;2022-09-12T09:59:19;100807.63;;;27.76;29.75
59493;BME280;45497;43.996;22.876;2022-09-12T10:01:58;100806.97;;;27.55;29.26
59493;BME280;45497;43.996;22.876;2022-09-12T10:06:22;100812.19;;;27.46;29.92
59493;BME280;45497;43.996;22.876;2022-09-12T10:08:49;100801.53;;;27.50;29.85
59493;BME280;45497;43.996;22.876;2022-09-12T10:16:30;100799.13;;;27.43;30.44
59493;BME280;45497;43.996;22.876;2022-09-12T10:19:01;100811.41;;;27.41;30.25
59493;BME280;45497;43.996;22.876;2022-09-12T10:21:49;100795.56;;;27.48;30.21
59493;BME280;45497;43.996;22.876;2022-09-12T10:24:40;100801.94;;;27.28;30.44
59493;BME280;45497;43.996;22.876;2022-09-12T10:30:13;100807.38;;;27.28;30.42
59493;BME280;45497;43.996;22.876;2022-09-12T10:32:42;100812.00;;;27.27;30.43
59493;BME280;45497;43.996;22.876;2022-09-12T10:40:28;100796.16;;;27.35;30.48
59493;BME280;45497;43.996;22.876;2022-09-12T10:42:57;100786.13;;;27.30;30.20
59493;BME280;45497;43.996;22.876;2022-09-12T10:45:36;100785.94;;;27.06;30.16
59493;BME280;45497;43.996;22.876;2022-09-12T10:50:51;100789.00;;;26.94;30.34
59493;BME280;45497;43.996;22.876;2022-09-12T10:53:23;100803.13;;;26.96;30.56
59493;BME280;45497;43.996;22.876;2022-09-12T11:01:25;100788.47;;;26.92;30.50
59493;BME280;45497;43.996;22.876;2022-09-12T11:15:31;100793.06;;;26.92;29.92
59493;BME280;45497;43.996;22.876;2022-09-12T11:18:26;100797.72;;;26.86;30.30
59493;BME280;45497;43.996;22.876;2022-09-12T11:21:01;100799.38;;;26.82;30.50
59493;BME280;45497;43.996;22.876;2022-09-12T11:26:30;100795.59;;;26.73;29.92
59493;BME280;45497;43.996;22.876;2022-09-12T11:32:09;100802.91;;;26.82;30.55
59493;BME280;45497;43.996;22.876;2022-09-12T11:41:24;100782.53;;;26.69;29.76
59493;BME280;45497;43.996;22.876;2022-09-12T11:46:44;100778.69;;;26.76;29.88
59493;BME280;45497;43.996;22.876;2022-09-12T11:49:12;100791.78;;;26.68;29.82
59493;BME280;45497;43.996;22.876;2022-09-12T11:51:49;100801.31;;;26.61;30.49
59493;BME280;45497;43.996;22.876;2022-09-12T11:54:34;100784.72;;;26.52;30.63
59493;BME280;45497;43.996;22.876;2022-09-12T11:57:24;100795.31;;;26.54;30.00
59493;BME280;45497;43.996;22.876;2022-09-12T12:01:54;100785.00;;;26.50;30.12
59493;BME280;45497;43.996;22.876;2022-09-12T12:04:29;100769.78;;;26.44;30.13
59493;BME280;45497;43.996;22.876;2022-09-12T12:07:05;100770.31;;;26.46;30.34
59493;BME280;45497;43.996;22.876;2022-09-12T12:09:32;100777.94;;;26.44;30.78
59493;BME280;45497;43.996;22.876;2022-09-12T12:12:03;100769.00;;;26.44;30.59
59493;BME280;45497;43.996;22.876;2022-09-12T12:14:42;100760.00;;;26.48;30.89
59493;BME280;45497;43.996;22.876;2022-09-12T12:17:18;100781.47;;;26.50;30.71
59493;BME280;45497;43.996;22.876;2022-09-12T12:22:19;100761.09;;;26.52;31.15
59493;BME280;45497;43.996;22.876;2022-09-12T12:25:26;100781.72;;;26.48;30.64
59493;BME280;45497;43.996;22.876;2022-09-12T12:27:58;100769.00;;;26.33;30.68
59493;BME280;45497;43.996;22.876;2022-09-12T12:40:52;100779.59;;;26.25;30.77
59493;BME280;45497;43.996;22.876;2022-09-12T12:43:31;100757.31;;;26.18;30.77
59493;BME280;45497;43.996;22.876;2022-09-12T12:46:04;100780.72;;;26.19;30.70
59493;BME280;45497;43.996;22.876;2022-09-12T12:48:32;100784.50;;;26.28;30.71
59493;BME280;45497;43.996;22.876;2022-09-12T12:54:30;100779.06;;;26.23;30.96
59493;BME280;45497;43.996;22.876;2022-09-12T12:57:05;100784.22;;;26.24;31.19
59493;BME280;45497;43.996;22.876;2022-09-12T12:59:49;100786.94;;;26.24;31.04
59493;BME280;45497;43.996;22.876;2022-09-12T13:04:50;100778.00;;;26.24;30.91
59493;BME280;45497;43.996;22.876;2022-09-12T13:10:53;100789.94;;;26.18;31.10
59493;BME280;45497;43.996;22.876;2022-09-12T13:13:42;100785.88;;;26.15;31.34
59493;BME280;45497;43.996;22.876;2022-09-12T13:16:51;100800.00;;;26.12;31.28
59493;BME280;45497;43.996;22.876;2022-09-12T13:19:33;100798.91;;;26.08;31.03
59493;BME280;45497;43.996;22.876;2022-09-12T13:22:07;100788.31;;;26.06;31.13
59493;BME280;45497;43.996;22.876;2022-09-12T13:24:41;100794.28;;;26.03;30.80
59493;BME280;45497;43.996;22.876;2022-09-12T13:27:16;100792.41;;;25.99;30.94
59493;BME280;45497;43.996;22.876;2022-09-12T13:29:43;100789.13;;;25.97;30.81
59493;BME280;45497;43.996;22.876;2022-09-12T13:32:08;100795.88;;;25.89;30.79
59493;BME280;45497;43.996;22.876;2022-09-12T13:34:39;100784.75;;;25.90;30.74
59493;BME280;45497;43.996;22.876;2022-09-12T13:43:10;100786.38;;;25.91;30.87
59493;BME280;45497;43.996;22.876;2022-09-12T13:46:42;100792.94;;;25.96;30.68
59493;BME280;45497;43.996;22.876;2022-09-12T13:51:56;100790.22;;;25.96;30.99
59493;BME280;45497;43.996;22.876;2022-09-12T13:54:23;100788.03;;;25.98;30.85
59493;BME280;45497;43.996;22.876;2022-09-12T13:56:49;100798.63;;;25.99;30.77
59493;BME280;45497;43.996;22.876;2022-09-12T13:59:14;100802.44;;;25.98;30.59
59493;BME280;45497;43.996;22.876;2022-09-12T14:01:42;100804.59;;;26.01;30.52
59493;BME280;45497;43.996;22.876;2022-09-12T14:04:21;100802.16;;;26.00;30.36
59493;BME280;45497;43.996;22.876;2022-09-12T14:07:12;100793.75;;;25.96;29.95
59493;BME280;45497;43.996;22.876;2022-09-12T14:09:44;100797.53;;;25.90;30.32
59493;BME280;45497;43.996;22.876;2022-09-12T14:12:33;100797.78;;;25.88;30.25
59493;BME280;45497;43.996;22.876;2022-09-12T14:15:00;100788.00;;;25.77;30.06
59493;BME280;45497;43.996;22.876;2022-09-12T14:17:31;100790.97;;;25.70;30.16
59493;BME280;45497;43.996;22.876;2022-09-12T14:19:59;100789.59;;;25.73;30.39
59493;BME280;45497;43.996;22.876;2022-09-12T14:22:26;100785.03;;;25.79;30.13
59493;BME280;45497;43.996;22.876;2022-09-12T14:24:55;100788.00;;;25.77;29.99
59493;BME280;45497;43.996;22.876;2022-09-12T14:27:26;100787.75;;;25.79;30.05
59493;BME280;45497;43.996;22.876;2022-09-12T14:30:18;100783.09;;;25.74;30.11
59493;BME280;45497;43.996;22.876;2022-09-12T14:35:37;100783.09;;;25.69;30.20
59493;BME280;45497;43.996;22.876;2022-09-12T14:40:57;100784.19;;;25.68;30.85
59493;BME280;45497;43.996;22.876;2022-09-12T14:43:29;100790.97;;;25.70;31.10
59493;BME280;45497;43.996;22.876;2022-09-12T14:45:58;100793.16;;;25.79;30.98
59493;BME280;45497;43.996;22.876;2022-09-12T14:48:33;100798.31;;;25.75;31.26
59493;BME280;45497;43.996;22.876;2022-09-12T14:51:00;100783.66;;;25.76;31.72
59493;BME280;45497;43.996;22.876;2022-09-12T14:53:55;100791.53;;;25.72;31.65
59493;BME280;45497;43.996;22.876;2022-09-12T14:56:39;100786.09;;;25.72;31.78
59493;BME280;45497;43.996;22.876;2022-09-12T15:02:20;100782.03;;;25.75;31.96
59493;BME280;45497;43.996;22.876;2022-09-12T15:05:33;100796.16;;;25.77;32.41
59493;BME280;45497;43.996;22.876;2022-09-12T15:07:38;100783.91;;;25.74;32.69
59493;BME280;45497;43.996;22.876;2022-09-12T15:10:31;100780.66;;;25.67;32.67
59493;BME280;45497;43.996;22.876;2022-09-12T15:15:30;100790.66;;;25.56;33.07
59493;BME280;45497;43.996;22.876;2022-09-12T15:17:56;100783.91;;;25.54;33.18
59493;BME280;45497;43.996;22.876;2022-09-12T15:20:21;100787.69;;;25.43;33.40
59493;BME280;45497;43.996;22.876;2022-09-12T15:22:48;100789.00;;;25.40;33.29
59493;BME280;45497;43.996;22.876;2022-09-12T15:28:21;100785.75;;;25.38;33.53
59493;BME280;45497;43.996;22.876;2022-09-12T15:30:48;100780.03;;;25.34;33.43
59493;BME280;45497;43.996;22.876;2022-09-12T15:33:17;100775.16;;;25.36;33.60
59493;BME280;45497;43.996;22.876;2022-09-12T15:35:43;100777.59;;;25.38;33.36
59493;BME280;45497;43.996;22.876;2022-09-12T15:38:08;100785.22;;;25.41;33.44
59493;BME280;45497;43.996;22.876;2022-09-12T15:42:39;100789.00;;;25.40;33.47
59493;BME280;45497;43.996;22.876;2022-09-12T15:45:27;100790.63;;;25.36;33.49
59493;BME280;45497;43.996;22.876;2022-09-12T15:47:54;100787.63;;;25.32;33.56
59493;BME280;45497;43.996;22.876;2022-09-12T15:50:19;100779.94;;;25.19;33.80
59493;BME280;45497;43.996;22.876;2022-09-12T15:52:45;100782.13;;;25.17;33.85
59493;BME280;45497;43.996;22.876;2022-09-12T15:55:17;100789.97;;;25.13;33.88
59493;BME280;45497;43.996;22.876;2022-09-12T15:57:43;100789.66;;;25.05;34.01
59493;BME280;45497;43.996;22.876;2022-09-12T16:00:10;100786.66;;;25.01;34.03
59493;BME280;45497;43.996;22.876;2022-09-12T16:02:36;100796.72;;;25.00;34.20
59493;BME280;45497;43.996;22.876;2022-09-12T16:05:02;100799.69;;;24.99;34.33
59493;BME280;45497;43.996;22.876;2022-09-12T16:07:29;100792.63;;;24.98;34.37
59493;BME280;45497;43.996;22.876;2022-09-12T16:09:54;100793.69;;;24.87;34.45
59493;BME280;45497;43.996;22.876;2022-09-12T16:12:20;100805.56;;;24.80;34.43
59493;BME280;45497;43.996;22.876;2022-09-12T16:14:45;100807.47;;;24.80;34.50
59493;BME280;45497;43.996;22.876;2022-09-12T16:17:10;100800.06;;;24.70;34.56
59493;BME280;45497;43.996;22.876;2022-09-12T16:19:36;100809.56;;;24.68;34.74
59493;BME280;45497;43.996;22.876;2022-09-12T16:22:01;100800.88;;;24.66;34.94
59493;BME280;45497;43.996;22.876;2022-09-12T16:24:27;100812.53;;;24.66;35.18